Terminal Aerodrome Forecast
Issued by NWS Upton, NY

Home | Current Version | Previous Version | Text Only | Print | Product List | Glossary On
Versions: 1 2 3 4 5 6 7 8 9 10 11 12 13 14 15 16 17 18 19 20 21 22 23 24 25 26 27
000
FTUS41 KOKX 010200 AAA
TAFISP
TAF AMD
KISP 010241Z 0103/0124 05008KT 6SM -SHRA SCT007 OVC015
     FM010500 03010KT 3SM -SHRA OVC006
     FM011000 03010KT 2SM SHRA BR BKN006 BKN012
     FM011600 02014G20KT 5SM -SHRA BR SCT006 BKN012=

USA.gov is the U.S. government's official web portal to all federal, state and local government web resources and services.